Archival Weather

Aeroparque Jorge Newbery

Buenos Aires, Argentina (SABE)

Report from: Thursday, February 22, 2024 9:00 PM -03
Current time: Monday, June 24, 2024 8:04 AM -03

Current weather – Weather history – Daily summaries
Weather forecast

Temperature26.0°C (78.8°F)
Dew point22.0°C (71.6°F)
Winds 14 kts (7.2 m/s, 16.1 mph) East-Southeast (110°)
Clouds Sky clear
Altimeter29.74 in.Hg (1007 mB)
Relative humidity79 %
Density altitude1,838 ft. (560 m)
Remarks Ceiling and visibility OK
No significant changes expected in the next two hours
Flight conditions Visual Meteorological Conditions
Raw dataSABE 230000Z 11014KT CAVOK 26/22 Q1007 NOSIG
An error has occurred. This application may no longer respond until reloaded. Reload 🗙